Time;durP1;ratioP1;P1;durP2;ratioP2;P2;SDS_P1;SDS_P2;PMS_P1;PMS_P2;Temp;Humidity;BMP_temperature;BMP_pressure;BME280_temperature;BME280_humidity;BME280_pressure;Samples;Min_cycle;Max_cycle;Signal;HPM_P1;HPM_P2
2022/06/22 00:00:53;;;;;;;4.07;2.80;;;12.30;95.60;;;;;;5053252;28;20229;-80
2022/06/22 00:03:21;;;;;;;5.13;3.13;;;12.30;95.90;;;;;;5052914;28;20242;-79
2022/06/22 00:05:50;;;;;;;4.83;2.90;;;12.20;96.00;;;;;;5053132;28;20262;-80
2022/06/22 00:08:22;;;;;;;3.60;2.60;;;12.20;96.20;;;;;;5047656;28;20231;-81
2022/06/22 00:10:54;;;;;;;4.80;3.03;;;12.10;96.40;;;;;;5052554;28;20231;-81
2022/06/22 00:13:24;;;;;;;4.33;3.43;;;12.00;96.60;;;;;;5047319;28;20232;-82
2022/06/22 00:15:53;;;;;;;3.63;2.73;;;12.00;96.70;;;;;;5034380;28;20220;-81
2022/06/22 00:18:28;;;;;;;3.63;3.00;;;11.90;96.70;;;;;;5052685;28;20257;-81
2022/06/22 00:20:57;;;;;;;4.57;2.80;;;11.80;96.90;;;;;;5052778;28;20518;-82
2022/06/22 00:23:29;;;;;;;3.90;2.90;;;11.70;96.90;;;;;;5033706;28;20237;-81
2022/06/22 00:26:16;;;;;;;3.23;2.83;;;11.60;97.30;;;;;;5033854;28;20229;-80
2022/06/22 00:28:56;;;;;;;4.50;3.20;;;11.60;97.90;;;;;;5052950;28;20223;-81
2022/06/22 00:31:34;;;;;;;3.43;3.13;;;11.50;98.30;;;;;;5031144;28;20783;-81
2022/06/22 00:34:13;;;;;;;3.57;2.40;;;11.50;98.00;;;;;;5043328;28;20311;-79
2022/06/22 00:36:43;;;;;;;3.97;2.63;;;11.50;97.40;;;;;;5035131;28;20233;-81
2022/06/22 00:39:24;;;;;;;3.20;2.77;;;11.40;97.40;;;;;;5026374;28;20229;-82
2022/06/22 00:41:55;;;;;;;3.37;2.97;;;11.40;98.10;;;;;;5033711;28;20845;-81
2022/06/22 00:44:23;;;;;;;3.27;2.93;;;11.40;98.10;;;;;;5033817;28;20227;-81
2022/06/22 00:46:58;;;;;;;4.50;2.70;;;11.30;98.20;;;;;;5036282;28;20258;-81
2022/06/22 00:49:25;;;;;;;5.23;3.20;;;11.30;98.60;;;;;;5030100;28;20220;-82
2022/06/22 00:51:52;;;;;;;4.97;3.17;;;11.30;98.60;;;;;;5051873;28;20242;-81
2022/06/22 00:54:27;;;;;;;3.87;2.90;;;11.20;98.70;;;;;;5050502;28;20231;-81
2022/06/22 00:57:00;;;;;;;6.17;3.77;;;11.20;99.30;;;;;;5044209;28;20224;-80
2022/06/22 00:59:33;;;;;;;4.80;3.60;;;11.20;99.40;;;;;;5041794;28;20869;-82
2022/06/22 01:02:04;;;;;;;7.37;3.97;;;11.10;99.50;;;;;;5035700;28;20697;-79
2022/06/22 01:04:40;;;;;;;4.90;3.40;;;11.10;99.60;;;;;;5034090;28;20294;-79
2022/06/22 01:07:15;;;;;;;4.30;3.20;;;11.00;99.70;;;;;;5027131;28;20599;-80
2022/06/22 01:09:51;;;;;;;4.10;3.00;;;11.00;99.70;;;;;;5052237;28;20244;-80
2022/06/22 01:12:25;;;;;;;3.73;3.40;;;11.00;99.80;;;;;;5033383;28;20228;-78
2022/06/22 01:15:12;;;;;;;3.43;3.00;;;10.90;99.90;;;;;;5034083;28;20221;-78
2022/06/22 01:17:46;;;;;;;4.87;3.47;;;10.80;99.90;;;;;;5034777;28;20228;-80
2022/06/22 01:20:22;;;;;;;3.97;3.00;;;10.80;99.80;;;;;;5030280;28;20234;-81
2022/06/22 01:23:38;;;;;;;3.53;3.23;;;10.80;99.30;;;;;;5034256;28;20320;-81
2022/06/22 01:26:23;;;;;;;5.40;3.13;;;10.70;99.60;;;;;;5034120;28;20217;-81
2022/06/22 01:28:55;;;;;;;4.17;3.07;;;10.70;99.70;;;;;;5052992;28;21004;-80
2022/06/22 01:31:22;;;;;;;4.53;3.53;;;10.60;99.60;;;;;;5051427;28;20227;-81
2022/06/22 01:33:51;;;;;;;4.43;3.33;;;10.60;99.50;;;;;;5051359;28;20227;-79
2022/06/22 01:36:22;;;;;;;5.17;3.40;;;10.50;99.90;;;;;;5052131;28;20230;-80
2022/06/22 01:38:49;;;;;;;4.70;3.40;;;10.50;99.90;;;;;;5033972;28;20704;-80
2022/06/22 01:41:28;;;;;;;4.37;3.60;;;10.40;99.90;;;;;;5050797;28;20258;-80
2022/06/22 01:44:02;;;;;;;3.13;2.67;;;10.40;99.90;;;;;;5033524;28;20637;-79
2022/06/22 01:46:38;;;;;;;4.20;2.60;;;10.40;99.90;;;;;;5052229;28;20223;-80
2022/06/22 01:49:12;;;;;;;4.00;2.90;;;10.30;99.90;;;;;;5027159;28;20230;-80
2022/06/22 01:51:46;;;;;;;3.63;3.33;;;10.30;99.90;;;;;;5052464;28;20232;-81
2022/06/22 01:54:24;;;;;;;4.10;3.47;;;10.20;99.90;;;;;;5051740;28;20250;-80
2022/06/22 01:56:57;;;;;;;4.23;3.10;;;10.20;99.90;;;;;;5052321;28;20223;-80
2022/06/22 01:59:32;;;;;;;6.00;3.20;;;10.20;99.90;;;;;;5051447;28;20231;-80
2022/06/22 02:02:02;;;;;;;3.97;3.10;;;10.20;99.90;;;;;;5034149;28;20223;-80
2022/06/22 02:04:34;;;;;;;3.70;3.30;;;10.10;99.90;;;;;;5045252;28;20248;-80
2022/06/22 02:10:00;;;;;;;3.70;3.30;;;10.00;99.90;;;;;;5031793;28;20224;-79
2022/06/22 02:12:34;;;;;;;4.50;3.40;;;10.00;99.90;;;;;;5025040;28;20252;-78
2022/06/22 02:15:13;;;;;;;5.03;3.83;;;9.90;99.90;;;;;;5026963;28;20231;-78
2022/06/22 02:17:41;;;;;;;3.50;2.97;;;9.90;99.90;;;;;;5027979;28;20708;-79
2022/06/22 02:20:34;;;;;;;4.03;2.77;;;9.90;99.90;;;;;;5047414;28;20895;-79
2022/06/22 02:23:17;;;;;;;3.03;2.73;;;9.90;99.90;;;;;;5032821;28;20245;-79
2022/06/22 02:25:49;;;;;;;4.63;3.97;;;9.80;99.90;;;;;;5052139;28;20753;-77
2022/06/22 02:28:16;;;;;;;5.90;3.70;;;9.80;99.90;;;;;;5052054;28;20231;-80
2022/06/22 02:30:45;;;;;;;4.43;3.53;;;9.70;99.90;;;;;;5052927;28;20859;-78
2022/06/22 02:33:13;;;;;;;4.50;3.53;;;9.70;99.90;;;;;;5052506;28;20342;-80
2022/06/22 02:35:41;;;;;;;4.97;3.60;;;9.60;99.90;;;;;;5052489;28;20235;-79
2022/06/22 02:38:11;;;;;;;4.17;3.37;;;9.60;99.90;;;;;;5026670;28;20227;-78
2022/06/22 02:46:14;;;;;;;3.37;3.07;;;9.50;99.90;;;;;;5047148;28;20232;-79
2022/06/22 02:48:44;;;;;;;4.03;3.20;;;9.50;99.90;;;;;;5035624;28;20286;-78
2022/06/22 02:51:17;;;;;;;4.33;3.70;;;9.40;99.90;;;;;;5053317;28;20322;-79
2022/06/22 02:53:45;;;;;;;5.13;3.43;;;9.40;99.90;;;;;;5036377;28;20852;-78
2022/06/22 02:56:16;;;;;;;4.93;3.87;;;9.40;99.90;;;;;;5050846;28;20234;-79
2022/06/22 02:58:44;;;;;;;5.10;4.10;;;9.40;99.90;;;;;;5048448;28;20705;-78
2022/06/22 03:01:15;;;;;;;4.50;3.63;;;9.30;99.90;;;;;;5037929;28;20448;-80
2022/06/22 03:03:46;;;;;;;4.90;3.70;;;9.30;99.90;;;;;;5036282;28;20231;-79
2022/06/22 03:06:15;;;;;;;6.50;4.27;;;9.30;99.90;;;;;;5053895;28;20231;-77
2022/06/22 03:08:41;;;;;;;5.83;3.80;;;9.30;99.90;;;;;;5054696;28;20238;-77
2022/06/22 03:11:11;;;;;;;5.80;4.30;;;9.30;99.90;;;;;;5035540;28;20247;-79
2022/06/22 03:13:42;;;;;;;4.50;3.80;;;9.30;99.90;;;;;;5053209;28;20237;-77
2022/06/22 03:16:16;;;;;;;4.40;4.00;;;9.20;99.90;;;;;;5039681;28;20228;-78
2022/06/22 03:18:44;;;;;;;5.23;3.47;;;9.30;99.90;;;;;;5022246;28;20220;-79
2022/06/22 03:21:14;;;;;;;5.03;3.77;;;9.20;99.90;;;;;;5031880;28;20714;-79
2022/06/22 03:23:47;;;;;;;4.07;3.50;;;9.20;99.90;;;;;;5055548;28;20235;-78
2022/06/22 03:26:18;;;;;;;5.73;4.03;;;9.20;99.90;;;;;;5031586;28;20906;-78
2022/06/22 03:28:49;;;;;;;5.17;3.40;;;9.20;99.90;;;;;;5037566;28;20833;-79
2022/06/22 03:31:22;;;;;;;4.53;3.70;;;9.20;99.90;;;;;;5044573;28;20234;-78
2022/06/22 03:33:58;;;;;;;5.77;4.20;;;9.20;99.90;;;;;;5030836;28;20667;-80
2022/06/22 03:36:32;;;;;;;6.20;4.80;;;9.20;99.90;;;;;;5050282;28;20227;-76
2022/06/22 03:39:02;;;;;;;5.70;4.17;;;9.20;99.90;;;;;;5052297;28;20228;-79
2022/06/22 03:41:34;;;;;;;4.60;4.03;;;9.20;99.90;;;;;;5065429;23;20321;-78
2022/06/22 03:44:05;;;;;;;4.77;3.50;;;9.20;99.90;;;;;;5064713;28;20224;-79
2022/06/22 03:46:37;;;;;;;5.30;3.53;;;9.20;99.90;;;;;;5076517;28;20233;-78
2022/06/22 03:49:11;;;;;;;5.10;3.63;;;9.20;99.90;;;;;;5046506;28;20228;-79
2022/06/22 03:51:44;;;;;;;3.77;3.37;;;9.20;99.90;;;;;;5069684;28;20311;-80
2022/06/22 03:54:16;;;;;;;4.53;3.77;;;9.20;99.90;;;;;;5047502;28;20322;-79
2022/06/22 03:56:45;;;;;;;4.70;4.30;;;9.30;99.90;;;;;;5032141;28;20230;-78
2022/06/22 03:59:13;;;;;;;5.03;4.00;;;9.30;99.90;;;;;;5039631;28;20694;-78
2022/06/22 04:01:41;;;;;;;4.40;3.13;;;9.40;99.90;;;;;;5028408;28;20231;-78
2022/06/22 04:04:10;;;;;;;4.33;3.53;;;9.40;99.90;;;;;;5030096;28;20319;-79
2022/06/22 04:06:39;;;;;;;5.30;3.73;;;9.50;99.90;;;;;;5050373;28;20580;-80
2022/06/22 04:09:14;;;;;;;4.77;3.80;;;9.50;99.90;;;;;;5047199;28;20230;-80
2022/06/22 04:11:45;;;;;;;3.30;3.00;;;9.50;99.90;;;;;;5041386;28;20230;-79
2022/06/22 04:14:17;;;;;;;3.93;3.47;;;9.60;99.90;;;;;;5044243;28;20765;-79
2022/06/22 04:16:48;;;;;;;4.37;3.97;;;9.60;99.90;;;;;;5048866;28;20231;-80
2022/06/22 04:19:21;;;;;;;6.60;4.40;;;9.60;99.90;;;;;;5032982;28;20231;-79
2022/06/22 04:21:52;;;;;;;9.03;5.80;;;9.60;99.90;;;;;;5047624;28;20696;-79
2022/06/22 04:24:24;;;;;;;6.53;5.27;;;9.60;99.90;;;;;;5030331;28;20216;-80
2022/06/22 04:26:56;;;;;;;7.33;4.60;;;9.70;99.90;;;;;;5060585;28;20237;-78
2022/06/22 04:29:29;;;;;;;5.93;4.60;;;9.70;99.90;;;;;;5048840;28;20246;-77
2022/06/22 04:32:01;;;;;;;7.67;5.40;;;9.80;99.90;;;;;;5032069;28;20246;-78
2022/06/22 04:34:38;;;;;;;8.17;5.93;;;9.80;99.90;;;;;;5050017;28;20232;-77
2022/06/22 04:37:11;;;;;;;6.43;5.23;;;9.90;99.90;;;;;;5032349;28;20230;-77
2022/06/22 04:39:47;;;;;;;6.93;5.87;;;10.00;99.90;;;;;;5032700;28;20230;-78
2022/06/22 04:42:14;;;;;;;7.70;5.83;;;10.00;99.90;;;;;;5030703;28;20834;-78
2022/06/22 04:44:45;;;;;;;7.93;5.47;;;10.00;99.90;;;;;;5049882;28;20226;-77
2022/06/22 04:47:16;;;;;;;8.90;5.87;;;10.10;99.90;;;;;;5031711;28;20312;-78
2022/06/22 04:49:50;;;;;;;9.50;6.30;;;10.20;99.90;;;;;;5050482;28;20232;-78
2022/06/22 04:52:24;;;;;;;8.47;6.10;;;10.30;99.90;;;;;;5030973;28;20242;-78
2022/06/22 04:54:56;;;;;;;9.77;5.80;;;10.30;99.90;;;;;;5050968;28;20691;-78
2022/06/22 04:57:26;;;;;;;8.20;5.63;;;10.40;99.90;;;;;;5051297;28;20234;-77
2022/06/22 04:59:54;;;;;;;9.87;6.17;;;10.50;99.90;;;;;;5052791;28;20242;-78
2022/06/22 05:02:26;;;;;;;6.87;6.10;;;10.60;99.90;;;;;;5068768;28;20229;-78
2022/06/22 05:05:00;;;;;;;7.40;5.37;;;10.70;99.90;;;;;;5070206;28;20307;-78
2022/06/22 05:07:38;;;;;;;9.50;5.43;;;10.80;99.90;;;;;;5052156;28;20225;-78
2022/06/22 05:10:14;;;;;;;6.87;5.40;;;10.90;99.90;;;;;;5030318;28;20220;-78
2022/06/22 05:12:45;;;;;;;7.57;5.13;;;11.00;99.90;;;;;;5047484;28;20231;-78
2022/06/22 05:15:20;;;;;;;8.53;5.10;;;11.10;99.90;;;;;;5049055;28;20245;-77
2022/06/22 05:17:48;;;;;;;8.07;5.03;;;11.20;99.90;;;;;;5049819;28;20704;-77
2022/06/22 05:20:22;;;;;;;7.43;5.00;;;11.30;99.90;;;;;;5049470;28;20226;-78
2022/06/22 05:22:51;;;;;;;9.37;4.83;;;11.40;99.90;;;;;;5037228;28;20242;-79
2022/06/22 05:25:19;;;;;;;8.87;5.27;;;11.50;99.90;;;;;;5035015;28;20231;-78
2022/06/22 05:27:54;;;;;;;10.90;5.60;;;11.60;99.90;;;;;;5048769;28;20300;-78
2022/06/22 05:30:22;;;;;;;8.07;5.13;;;11.70;99.90;;;;;;5050719;28;20746;-79
2022/06/22 05:32:52;;;;;;;10.13;5.20;;;11.80;99.90;;;;;;5068161;28;20224;-78
2022/06/22 05:35:27;;;;;;;9.50;5.63;;;11.80;99.90;;;;;;5051076;28;20233;-80
2022/06/22 05:37:55;;;;;;;10.07;5.33;;;12.00;99.90;;;;;;5055749;28;20229;-79
2022/06/22 05:40:26;;;;;;;9.67;5.40;;;12.00;99.90;;;;;;5030704;28;20254;-79
2022/06/22 05:42:53;;;;;;;10.50;5.20;;;12.10;99.90;;;;;;5059109;28;20248;-78
2022/06/22 05:45:24;;;;;;;12.03;5.33;;;12.20;99.90;;;;;;5053717;28;20229;-79
2022/06/22 05:47:52;;;;;;;10.47;5.50;;;12.30;99.90;;;;;;5045625;28;20327;-78
2022/06/22 05:50:32;;;;;;;11.97;5.40;;;12.30;99.90;;;;;;5049652;28;20233;-79
2022/06/22 05:53:04;;;;;;;9.43;4.90;;;12.40;99.90;;;;;;5029752;28;20227;-80
2022/06/22 05:55:41;;;;;;;11.47;5.33;;;12.50;99.90;;;;;;5038353;28;20724;-80
2022/06/22 05:58:13;;;;;;;11.20;5.27;;;12.60;99.90;;;;;;5033961;28;20222;-79
2022/06/22 06:00:44;;;;;;;8.77;4.70;;;12.70;99.90;;;;;;5045382;28;20221;-79
2022/06/22 06:03:23;;;;;;;10.10;5.27;;;12.80;99.90;;;;;;5027706;28;20313;-80
2022/06/22 06:05:55;;;;;;;6.57;4.73;;;12.90;99.90;;;;;;5048747;28;20220;-79
2022/06/22 06:08:24;;;;;;;8.37;4.67;;;12.90;99.90;;;;;;5043864;28;20881;-79
2022/06/22 06:10:51;;;;;;;7.73;4.70;;;13.00;99.90;;;;;;5052682;28;20232;-79
2022/06/22 06:13:22;;;;;;;8.37;4.50;;;13.10;99.90;;;;;;5040648;28;20242;-79
2022/06/22 06:15:54;;;;;;;8.87;4.50;;;13.20;99.90;;;;;;5025352;28;20228;-78
2022/06/22 06:18:26;;;;;;;9.50;4.43;;;13.30;99.90;;;;;;5048237;28;20226;-77
2022/06/22 06:21:00;;;;;;;8.90;4.07;;;13.40;99.90;;;;;;5029437;28;20245;-78
2022/06/22 06:23:31;;;;;;;8.40;4.40;;;13.50;99.90;;;;;;5029845;28;20697;-78
2022/06/22 06:28:53;;;;;;;7.30;4.20;;;13.60;99.90;;;;;;5049435;28;20223;-77
2022/06/22 06:31:27;;;;;;;5.60;4.10;;;13.70;99.90;;;;;;5048052;28;20241;-78
2022/06/22 06:33:54;;;;;;;9.20;4.43;;;13.70;99.90;;;;;;5052692;28;20236;-78
2022/06/22 06:36:27;;;;;;;6.43;4.27;;;13.80;99.90;;;;;;5048250;28;20720;-78
2022/06/22 06:38:57;;;;;;;7.30;4.17;;;14.00;99.90;;;;;;5048698;28;20217;-77
2022/06/22 06:41:29;;;;;;;6.03;3.93;;;14.10;99.90;;;;;;5039536;28;20629;-78
2022/06/22 06:44:01;;;;;;;8.13;4.20;;;14.20;99.90;;;;;;5051100;28;20311;-78
2022/06/22 06:46:31;;;;;;;6.93;4.23;;;14.30;99.90;;;;;;5051155;28;20273;-78
2022/06/22 06:49:02;;;;;;;7.60;4.20;;;14.40;99.90;;;;;;5050089;28;20246;-78
2022/06/22 06:51:32;;;;;;;7.67;4.40;;;14.40;99.90;;;;;;5031904;28;20733;-79
2022/06/22 06:54:06;;;;;;;5.90;3.80;;;14.50;99.90;;;;;;5044936;28;20219;-79
2022/06/22 06:56:39;;;;;;;7.53;4.10;;;14.60;99.90;;;;;;5055123;28;20354;-84
2022/06/22 06:59:13;;;;;;;7.33;4.27;;;14.70;99.90;;;;;;5050515;28;20218;-83
2022/06/22 07:01:40;;;;;;;7.20;4.27;;;14.90;99.90;;;;;;5051584;28;20244;-83
2022/06/22 07:04:22;;;;;;;10.23;3.90;;;15.20;99.90;;;;;;5032752;28;20297;-83
2022/06/22 07:06:52;;;;;;;8.93;3.83;;;15.70;99.90;;;;;;5046187;28;20568;-83
2022/06/22 07:09:26;;;;;;;6.60;3.50;;;16.30;99.90;;;;;;5020709;28;20710;-83
2022/06/22 07:12:01;;;;;;;8.55;3.67;;;17.00;99.90;;;;;;5025003;28;20224;-83
2022/06/22 07:14:32;;;;;;;7.35;3.17;;;17.70;99.90;;;;;;5025023;28;20231;-83
2022/06/22 07:17:02;;;;;;;6.25;3.67;;;18.50;99.90;;;;;;5045977;28;20219;-83
2022/06/22 07:19:35;;;;;;;8.65;3.90;;;19.30;99.60;;;;;;5031251;28;20223;-83
2022/06/22 07:22:11;;;;;;;6.72;3.45;;;20.00;98.50;;;;;;5045148;28;20471;-83
2022/06/22 07:24:44;;;;;;;7.05;3.20;;;20.70;97.50;;;;;;5045513;28;20223;-83
2022/06/22 07:27:21;;;;;;;5.88;2.70;;;21.30;96.80;;;;;;5046367;28;20223;-83
2022/06/22 07:29:55;;;;;;;5.53;3.17;;;22.00;94.90;;;;;;5049172;28;20695;-83
2022/06/22 07:32:30;;;;;;;9.23;3.33;;;22.60;94.40;;;;;;5034018;28;20238;-83
2022/06/22 07:35:01;;;;;;;5.05;3.35;;;23.00;93.10;;;;;;5056490;28;20918;-83
2022/06/22 07:37:34;;;;;;;8.57;3.75;;;23.40;92.80;;;;;;5020727;28;20229;-83
2022/06/22 07:40:06;;;;;;;6.05;3.78;;;23.80;91.90;;;;;;5043187;28;20873;-83
2022/06/22 07:42:33;;;;;;;7.38;3.50;;;24.20;91.40;;;;;;5022457;28;20230;-83
2022/06/22 07:45:00;;;;;;;8.55;3.42;;;24.60;90.90;;;;;;5028040;28;20223;-83
2022/06/22 07:47:33;;;;;;;5.78;3.40;;;24.80;90.20;;;;;;5041054;28;20258;-83
2022/06/22 07:50:05;;;;;;;8.80;3.50;;;25.10;88.30;;;;;;5050172;28;20224;-83
2022/06/22 07:52:37;;;;;;;5.70;2.95;;;25.40;87.60;;;;;;5052903;28;20878;-83
2022/06/22 07:55:17;;;;;;;5.88;3.70;;;25.60;85.20;;;;;;5049579;28;20224;-83
2022/06/22 07:57:54;;;;;;;8.68;3.13;;;25.90;84.10;;;;;;5041823;28;20251;-83
2022/06/22 08:00:23;;;;;;;6.18;3.17;;;26.20;84.40;;;;;;5032025;28;20400;-83
2022/06/22 08:02:54;;;;;;;7.57;3.08;;;26.60;81.10;;;;;;5035806;28;20223;-83
2022/06/22 08:05:25;;;;;;;8.70;3.72;;;27.00;80.40;;;;;;5025494;28;20231;-83
2022/06/22 08:07:58;;;;;;;5.45;3.22;;;27.30;80.30;;;;;;5047275;28;20231;-83
2022/06/22 08:10:28;;;;;;;7.50;3.45;;;27.70;78.30;;;;;;5029362;28;20230;-83
2022/06/22 08:13:02;;;;;;;5.50;3.40;;;27.90;76.10;;;;;;5025610;28;20703;-84
2022/06/22 08:15:31;;;;;;;9.20;3.08;;;28.10;73.40;;;;;;5025046;28;20800;-83
2022/06/22 08:18:00;;;;;;;6.18;3.20;;;28.20;75.10;;;;;;5027094;28;20222;-83
2022/06/22 08:20:30;;;;;;;6.05;3.15;;;28.20;73.90;;;;;;5040342;28;20258;-83
2022/06/22 08:23:01;;;;;;;7.03;3.17;;;28.40;73.80;;;;;;5034955;28;20219;-83
2022/06/22 08:25:28;;;;;;;6.18;3.40;;;28.50;72.80;;;;;;5031252;28;20228;-83
2022/06/22 08:27:54;;;;;;;6.05;3.40;;;28.70;72.60;;;;;;5054224;28;20230;-83
2022/06/22 08:30:21;;;;;;;6.78;3.78;;;29.00;72.30;;;;;;5042540;28;20251;-83
2022/06/22 08:32:54;;;;;;;7.35;3.22;;;29.30;71.50;;;;;;5026133;28;20721;-83
2022/06/22 08:35:25;;;;;;;6.07;3.38;;;29.70;70.30;;;;;;5044731;28;20224;-83
2022/06/22 08:38:00;;;;;;;5.38;3.50;;;29.90;66.70;;;;;;5034678;28;20708;-83
2022/06/22 08:40:40;;;;;;;8.60;3.95;;;29.90;66.40;;;;;;5051584;28;20227;-83
2022/06/22 08:43:16;;;;;;;6.90;3.33;;;29.90;66.40;;;;;;5029728;28;20217;-83
2022/06/22 08:46:14;;;;;;;4.68;3.00;;;30.00;66.70;;;;;;5047061;28;20223;-83
2022/06/22 08:49:04;;;;;;;6.45;3.45;;;30.20;66.00;;;;;;5038213;28;20230;-84
2022/06/22 08:51:49;;;;;;;4.40;2.80;;;30.40;65.10;;;;;;5026354;28;20232;-83
2022/06/22 08:54:32;;;;;;;5.18;3.33;;;30.60;63.90;;;;;;5053034;28;20224;-83
2022/06/22 08:57:05;;;;;;;4.72;3.08;;;30.70;61.70;;;;;;5028743;28;20220;-83
2022/06/22 09:00:10;;;;;;;5.60;3.50;;;30.70;60.80;;;;;;5024059;28;20243;-83
2022/06/22 09:03:11;;;;;;;4.70;3.53;;;30.70;61.70;;;;;;5023469;28;20236;-83
2022/06/22 09:06:03;;;;;;;5.75;3.25;;;30.70;61.40;;;;;;5055185;28;20230;-83
2022/06/22 09:08:52;;;;;;;5.80;3.85;;;30.70;60.80;;;;;;5024758;28;20216;-83
2022/06/22 09:11:26;;;;;;;5.90;3.67;;;30.70;60.30;;;;;;5041362;28;20216;-83
2022/06/22 09:14:15;;;;;;;4.70;3.92;;;30.70;59.20;;;;;;5026930;28;20216;-82
2022/06/22 09:17:01;;;;;;;6.25;3.88;;;30.80;59.50;;;;;;5031908;28;20251;-83
2022/06/22 09:19:42;;;;;;;7.10;4.00;;;31.00;58.00;;;;;;5022658;28;20231;-83
2022/06/22 09:22:15;;;;;;;7.50;4.40;;;30.80;58.00;;;;;;5024454;28;20227;-83
2022/06/22 09:24:58;;;;;;;6.63;3.53;;;30.80;57.00;;;;;;5025118;28;20228;-83
2022/06/22 09:27:34;;;;;;;7.97;4.10;;;30.70;57.30;;;;;;5049372;28;21283;-83
2022/06/22 09:30:20;;;;;;;6.13;4.07;;;30.70;57.30;;;;;;5030847;28;20221;-82
2022/06/22 09:33:01;;;;;;;7.78;4.82;;;30.90;57.90;;;;;;5044701;28;20231;-83
2022/06/22 09:35:49;;;;;;;7.20;4.50;;;31.10;56.30;;;;;;5056423;28;20236;-83
2022/06/22 09:38:31;;;;;;;7.03;4.18;;;31.30;55.70;;;;;;5030278;28;20236;-83
2022/06/22 09:41:06;;;;;;;7.05;3.72;;;31.40;55.50;;;;;;5039226;28;20227;-83
2022/06/22 09:44:04;;;;;;;4.82;3.63;;;31.60;55.00;;;;;;5043090;28;20593;-83
2022/06/22 09:46:58;;;;;;;6.03;3.22;;;31.70;52.90;;;;;;5030798;28;20243;-85
2022/06/22 09:49:57;;;;;;;6.90;3.63;;;31.60;53.10;;;;;;5034752;28;20231;-85
2022/06/22 09:52:48;;;;;;;5.55;3.22;;;31.40;53.60;;;;;;5048220;28;20279;-84
2022/06/22 09:58:31;;;;;;;6.57;3.38;;;31.30;52.70;;;;;;5042777;28;20225;-84
2022/06/22 10:01:05;;;;;;;4.88;3.13;;;31.40;53.30;;;;;;5027340;28;20223;-85
2022/06/22 10:04:09;;;;;;;4.70;2.92;;;31.60;52.50;;;;;;5044719;28;20714;-85
2022/06/22 10:06:58;;;;;;;5.50;3.67;;;31.70;52.90;;;;;;5051928;28;20314;-84
2022/06/22 10:09:36;;;;;;;5.55;3.40;;;31.70;52.00;;;;;;5038511;28;20227;-85
2022/06/22 10:12:16;;;;;;;4.70;3.03;;;31.70;51.40;;;;;;5040057;28;20726;-85
2022/06/22 10:14:55;;;;;;;5.20;2.75;;;31.70;52.10;;;;;;5049037;28;20586;-85
2022/06/22 10:17:34;;;;;;;3.60;2.60;;;31.60;52.00;;;;;;5030256;28;20216;-84
2022/06/22 10:20:21;;;;;;;6.53;3.20;;;31.40;52.00;;;;;;5017519;28;20891;-84
2022/06/22 10:23:00;;;;;;;6.53;3.50;;;31.20;52.10;;;;;;5049785;28;20231;-84
2022/06/22 10:25:45;;;;;;;5.88;2.83;;;31.10;51.40;;;;;;5030964;28;20804;-84
2022/06/22 10:28:49;;;;;;;4.25;2.28;;;31.00;51.30;;;;;;5024849;28;20845;-84
2022/06/22 10:31:28;;;;;;;6.28;3.35;;;31.00;52.30;;;;;;5035317;28;20247;-84
2022/06/22 10:34:20;;;;;;;4.90;3.75;;;31.10;51.80;;;;;;5053076;28;20230;-84
2022/06/22 10:37:23;;;;;;;4.53;3.15;;;31.30;51.90;;;;;;5018773;28;20308;-84
2022/06/22 10:40:08;;;;;;;4.68;3.28;;;31.40;51.80;;;;;;5051243;28;20704;-83
2022/06/22 10:45:49;;;;;;;7.38;3.30;;;31.80;50.70;;;;;;5044680;28;20276;-84
2022/06/22 10:48:41;;;;;;;6.57;3.40;;;31.80;50.30;;;;;;5051440;28;20235;-82
2022/06/22 10:51:19;;;;;;;4.82;3.22;;;31.70;49.10;;;;;;5026693;28;20228;-83
2022/06/22 10:54:14;;;;;;;5.10;3.15;;;31.60;50.00;;;;;;5028410;28;20216;-83
2022/06/22 10:57:05;;;;;;;5.25;3.38;;;31.40;49.30;;;;;;5029698;28;20228;-83
2022/06/22 11:00:04;;;;;;;3.05;2.22;;;31.30;49.60;;;;;;5026821;28;20242;-83
2022/06/22 11:03:23;;;;;;;3.55;2.92;;;31.40;49.10;;;;;;5045627;28;20422;-83
2022/06/22 11:05:58;;;;;;;5.78;2.72;;;31.60;48.00;;;;;;5028307;28;20341;-83
2022/06/22 11:09:14;;;;;;;6.22;2.92;;;31.80;47.90;;;;;;5041869;28;20242;-83
2022/06/22 11:12:14;;;;;;;4.18;2.88;;;32.00;47.00;;;;;;5024954;28;20232;-83
2022/06/22 11:15:07;;;;;;;4.22;2.88;;;32.20;47.80;;;;;;5036860;28;20213;-82
2022/06/22 11:18:00;;;;;;;3.85;2.45;;;32.40;47.80;;;;;;5057119;28;20224;-83
2022/06/22 11:20:43;;;;;;;5.05;2.88;;;32.60;46.90;;;;;;5033730;28;20224;-84
2022/06/22 11:23:12;;;;;;;4.45;2.58;;;32.80;47.30;;;;;;5043935;28;20227;-84
2022/06/22 11:32:06;;;;;;;3.03;2.30;;;33.10;45.50;;;;;;5055898;28;20228;-83
2022/06/22 11:35:19;;;;;;;4.18;1.92;;;33.20;45.50;;;;;;5038324;28;20233;-83
2022/06/22 11:37:55;;;;;;;2.50;2.00;;;33.20;43.10;;;;;;5011399;28;20222;-83
2022/06/22 11:40:39;;;;;;;3.60;1.80;;;33.30;43.50;;;;;;5024858;28;20246;-83
2022/06/22 11:43:24;;;;;;;4.05;2.50;;;33.20;42.60;;;;;;5059764;28;20474;-83
2022/06/22 11:45:58;;;;;;;5.13;2.58;;;33.20;43.10;;;;;;5033518;28;20708;-83
2022/06/22 11:48:56;;;;;;;3.95;2.50;;;33.10;43.30;;;;;;5045058;28;20219;-84
2022/06/22 11:51:41;;;;;;;3.85;2.67;;;32.90;42.90;;;;;;5041335;28;20314;-84
2022/06/22 11:54:40;;;;;;;3.65;2.60;;;32.90;43.50;;;;;;5043081;28;20783;-83
2022/06/22 11:57:24;;;;;;;3.92;1.90;;;32.80;42.20;;;;;;5025397;28;20230;-83
2022/06/22 12:00:12;;;;;;;4.72;2.38;;;32.70;43.00;;;;;;5048388;28;20226;-83
2022/06/22 12:03:33;;;;;;;3.20;2.38;;;32.60;41.90;;;;;;5053426;28;20818;-82
2022/06/22 12:06:15;;;;;;;4.03;2.72;;;32.60;43.20;;;;;;5028031;28;20213;-82
2022/06/22 12:09:02;;;;;;;4.35;2.50;;;32.60;43.50;;;;;;5031704;28;20226;-82
2022/06/22 12:11:37;;;;;;;3.35;2.13;;;32.60;43.30;;;;;;5031132;28;21122;-82
2022/06/22 12:17:19;;;;;;;3.70;2.40;;;32.50;43.30;;;;;;5040067;28;20345;-82
2022/06/22 12:19:54;;;;;;;3.13;2.50;;;32.50;43.00;;;;;;5039243;28;20226;-82
2022/06/22 12:22:34;;;;;;;4.10;2.42;;;32.40;42.90;;;;;;5043785;28;20252;-82
2022/06/22 12:25:24;;;;;;;4.35;2.42;;;32.30;43.30;;;;;;5039950;28;20229;-82
2022/06/22 12:28:04;;;;;;;5.35;2.80;;;32.30;43.90;;;;;;5043646;28;20220;-83
2022/06/22 12:30:46;;;;;;;4.35;2.33;;;32.20;43.60;;;;;;5024906;28;20557;-82
2022/06/22 12:33:21;;;;;;;3.22;2.30;;;32.10;43.80;;;;;;5028384;28;20224;-82
2022/06/22 12:35:55;;;;;;;4.07;2.30;;;32.10;43.40;;;;;;5051088;28;20247;-82
2022/06/22 12:38:27;;;;;;;5.18;2.60;;;32.30;43.60;;;;;;5048102;28;20879;-82
2022/06/22 12:41:15;;;;;;;3.50;2.28;;;32.40;43.80;;;;;;5053520;28;20306;-82
2022/06/22 12:44:16;;;;;;;5.57;2.72;;;32.60;43.50;;;;;;5045269;28;20226;-82
2022/06/22 12:46:56;;;;;;;4.28;2.45;;;32.70;44.10;;;;;;5028962;28;20228;-82
2022/06/22 12:49:49;;;;;;;7.15;2.88;;;32.90;43.40;;;;;;5049315;28;20298;-84
2022/06/22 12:52:22;;;;;;;4.05;2.65;;;33.00;43.10;;;;;;5025499;28;20239;-84
2022/06/22 12:54:54;;;;;;;5.50;2.60;;;33.00;43.50;;;;;;5026605;28;20303;-83
2022/06/22 12:57:25;;;;;;;5.20;2.80;;;33.00;43.20;;;;;;5030811;28;20241;-84
2022/06/22 13:00:00;;;;;;;7.10;3.00;;;32.90;42.80;;;;;;5031993;28;20230;-84
2022/06/22 13:02:29;;;;;;;6.78;3.05;;;32.60;42.80;;;;;;5031115;28;20233;-84
2022/06/22 13:05:03;;;;;;;4.60;2.97;;;32.30;42.90;;;;;;5047250;28;20220;-84
2022/06/22 13:07:33;;;;;;;4.65;2.22;;;32.00;42.60;;;;;;5027606;28;20726;-83
2022/06/22 13:09:59;;;;;;;6.28;2.63;;;31.70;43.70;;;;;;5028720;28;20711;-84
2022/06/22 13:12:32;;;;;;;6.75;2.72;;;31.40;43.60;;;;;;5033060;28;20229;-83
2022/06/22 13:15:04;;;;;;;4.20;2.80;;;31.20;44.00;;;;;;5029427;28;20220;-83
2022/06/22 13:17:38;;;;;;;3.42;2.60;;;31.00;44.40;;;;;;5024777;28;20229;-82
2022/06/22 13:20:31;;;;;;;4.15;2.88;;;30.90;44.40;;;;;;5021129;28;20234;-83
2022/06/22 13:23:04;;;;;;;6.05;2.45;;;30.90;44.10;;;;;;5044338;28;20223;-82
2022/06/22 13:25:46;;;;;;;4.97;2.65;;;30.90;44.80;;;;;;5048518;28;20224;-82
2022/06/22 13:28:20;;;;;;;4.50;2.60;;;30.90;45.30;;;;;;5054707;28;20585;-87
2022/06/22 13:30:55;;;;;;;5.28;2.28;;;31.00;45.50;;;;;;5029549;28;20224;-85
2022/06/22 13:33:28;;;;;;;3.42;2.90;;;31.00;45.90;;;;;;5029444;28;20228;-84
2022/06/22 13:36:02;;;;;;;5.60;2.95;;;31.00;45.30;;;;;;5020963;28;20228;-84
2022/06/22 13:38:43;;;;;;;4.00;3.13;;;31.20;45.00;;;;;;5028896;28;20251;-86
2022/06/22 13:41:24;;;;;;;6.80;2.95;;;31.20;44.70;;;;;;5023992;28;20719;-86
2022/06/22 13:44:12;;;;;;;5.13;2.40;;;31.30;44.60;;;;;;5044959;28;20234;-85
2022/06/22 13:46:53;;;;;;;4.90;2.22;;;31.40;44.90;;;;;;5041139;28;20232;-84
2022/06/22 13:49:35;;;;;;;3.75;2.60;;;31.40;45.30;;;;;;5030729;28;20220;-82
2022/06/22 13:52:19;;;;;;;5.45;2.67;;;31.40;45.00;;;;;;5039279;28;20215;-85
2022/06/22 13:55:00;;;;;;;3.70;2.17;;;31.40;45.00;;;;;;5038890;28;20227;-84
2022/06/22 13:57:38;;;;;;;3.22;2.30;;;31.40;45.10;;;;;;5050615;28;20408;-79
2022/06/22 14:00:10;;;;;;;4.00;2.03;;;31.40;44.60;;;;;;5052964;28;20220;-79
2022/06/22 14:02:59;;;;;;;3.17;2.10;;;31.50;44.80;;;;;;5034140;28;20238;-80